sensor_id;sensor_type;location;lat;lon;timestamp;pressure;altitude;pressure_sealevel;temperature;humidity
77893;BME280;67087;50.094;14.338;2023-07-20T00:01:20;97546.20;;;29.19;23.61
77893;BME280;67087;50.094;14.338;2023-07-20T00:03:45;97554.61;;;29.10;23.72
77893;BME280;67087;50.094;14.338;2023-07-20T00:06:09;97560.88;;;28.59;24.54
77893;BME280;67087;50.094;14.338;2023-07-20T00:08:34;97571.05;;;28.48;24.49
77893;BME280;67087;50.094;14.338;2023-07-20T00:10:59;97574.60;;;28.86;24.58
77893;BME280;67087;50.094;14.338;2023-07-20T00:13:24;97576.81;;;28.03;24.67
77893;BME280;67087;50.094;14.338;2023-07-20T00:15:50;97577.86;;;28.90;24.26
77893;BME280;67087;50.094;14.338;2023-07-20T00:18:15;97577.11;;;29.06;24.08
77893;BME280;67087;50.094;14.338;2023-07-20T00:20:40;97576.32;;;29.04;24.10
77893;BME280;67087;50.094;14.338;2023-07-20T00:23:05;97568.50;;;29.16;24.26
77893;BME280;67087;50.094;14.338;2023-07-20T00:25:30;97563.93;;;28.97;24.21
77893;BME280;67087;50.094;14.338;2023-07-20T00:27:55;97562.68;;;28.68;24.54
77893;BME280;67087;50.094;14.338;2023-07-20T00:30:20;97559.68;;;28.62;24.61
77893;BME280;67087;50.094;14.338;2023-07-20T00:32:45;97569.32;;;28.92;24.33
77893;BME280;67087;50.094;14.338;2023-07-20T00:35:10;97571.76;;;29.13;24.65
77893;BME280;67087;50.094;14.338;2023-07-20T00:37:35;97563.39;;;29.26;24.03
77893;BME280;67087;50.094;14.338;2023-07-20T00:40:00;97551.68;;;28.75;24.45
77893;BME280;67087;50.094;14.338;2023-07-20T00:42:26;97551.42;;;28.53;24.26
77893;BME280;67087;50.094;14.338;2023-07-20T00:44:50;97552.49;;;29.00;24.27
77893;BME280;67087;50.094;14.338;2023-07-20T00:47:15;97561.37;;;29.44;24.29
77893;BME280;67087;50.094;14.338;2023-07-20T00:49:40;97565.13;;;28.55;25.15
77893;BME280;67087;50.094;14.338;2023-07-20T00:52:07;97561.76;;;28.60;24.69
77893;BME280;67087;50.094;14.338;2023-07-20T00:54:30;97566.14;;;28.62;24.59
77893;BME280;67087;50.094;14.338;2023-07-20T00:56:55;97569.81;;;29.15;24.61
77893;BME280;67087;50.094;14.338;2023-07-20T00:59:21;97569.54;;;29.01;24.31
77893;BME280;67087;50.094;14.338;2023-07-20T01:01:45;97569.96;;;29.10;24.22
77893;BME280;67087;50.094;14.338;2023-07-20T01:04:11;97573.82;;;29.10;24.43
77893;BME280;67087;50.094;14.338;2023-07-20T01:06:41;97576.96;;;29.11;24.14
77893;BME280;67087;50.094;14.338;2023-07-20T01:09:07;97577.62;;;29.01;24.44
77893;BME280;67087;50.094;14.338;2023-07-20T01:11:33;97580.90;;;28.57;24.47
77893;BME280;67087;50.094;14.338;2023-07-20T01:13:51;97579.50;;;28.93;24.41
77893;BME280;67087;50.094;14.338;2023-07-20T01:16:16;97579.38;;;29.20;24.43
77893;BME280;67087;50.094;14.338;2023-07-20T01:18:41;97579.97;;;29.50;24.38
77893;BME280;67087;50.094;14.338;2023-07-20T01:21:09;97584.72;;;28.90;24.52
77893;BME280;67087;50.094;14.338;2023-07-20T01:26:08;97587.96;;;29.61;24.20
77893;BME280;67087;50.094;14.338;2023-07-20T01:30:52;97586.04;;;29.85;23.90
77893;BME280;67087;50.094;14.338;2023-07-20T01:33:13;97585.88;;;29.35;24.31
77893;BME280;67087;50.094;14.338;2023-07-20T01:35:36;97587.47;;;28.71;24.51
77893;BME280;67087;50.094;14.338;2023-07-20T01:38:01;97590.89;;;29.44;24.02
77893;BME280;67087;50.094;14.338;2023-07-20T01:40:27;97593.49;;;29.04;24.07
77893;BME280;67087;50.094;14.338;2023-07-20T01:42:52;97591.77;;;29.29;24.35
77893;BME280;67087;50.094;14.338;2023-07-20T01:45:16;97596.56;;;29.64;24.04
77893;BME280;67087;50.094;14.338;2023-07-20T01:47:42;97598.66;;;28.94;23.96
77893;BME280;67087;50.094;14.338;2023-07-20T01:50:07;97592.62;;;28.61;24.94
77893;BME280;67087;50.094;14.338;2023-07-20T01:52:31;97589.29;;;28.45;24.94
77893;BME280;67087;50.094;14.338;2023-07-20T01:54:56;97591.67;;;28.60;25.14
77893;BME280;67087;50.094;14.338;2023-07-20T01:57:22;97591.82;;;28.47;24.97
77893;BME280;67087;50.094;14.338;2023-07-20T01:59:47;97583.90;;;29.40;23.82
77893;BME280;67087;50.094;14.338;2023-07-20T02:02:12;97584.31;;;28.98;24.38
77893;BME280;67087;50.094;14.338;2023-07-20T02:04:37;97580.89;;;28.42;24.87
77893;BME280;67087;50.094;14.338;2023-07-20T02:07:02;97579.78;;;29.01;24.71
77893;BME280;67087;50.094;14.338;2023-07-20T02:09:27;97575.20;;;27.85;25.31
77893;BME280;67087;50.094;14.338;2023-07-20T02:11:52;97579.21;;;28.25;25.59
77893;BME280;67087;50.094;14.338;2023-07-20T02:14:17;97577.64;;;29.17;24.73
77893;BME280;67087;50.094;14.338;2023-07-20T02:16:42;97576.11;;;29.34;24.39
77893;BME280;67087;50.094;14.338;2023-07-20T02:19:07;97574.71;;;29.92;23.71
77893;BME280;67087;50.094;14.338;2023-07-20T02:21:32;97579.73;;;29.02;24.03
77893;BME280;67087;50.094;14.338;2023-07-20T02:23:57;97587.55;;;29.13;24.11
77893;BME280;67087;50.094;14.338;2023-07-20T02:26:23;97590.68;;;28.41;24.37
77893;BME280;67087;50.094;14.338;2023-07-20T02:28:47;97586.84;;;28.76;24.40
77893;BME280;67087;50.094;14.338;2023-07-20T02:31:12;97589.47;;;28.89;24.51
77893;BME280;67087;50.094;14.338;2023-07-20T02:33:37;97593.81;;;28.98;24.16
77893;BME280;67087;50.094;14.338;2023-07-20T02:36:02;97595.52;;;28.88;24.55
77893;BME280;67087;50.094;14.338;2023-07-20T02:38:27;97598.54;;;28.63;24.38
77893;BME280;67087;50.094;14.338;2023-07-20T02:40:52;97594.42;;;28.67;24.67
77893;BME280;67087;50.094;14.338;2023-07-20T02:43:18;97592.27;;;28.98;24.92
77893;BME280;67087;50.094;14.338;2023-07-20T02:45:43;97594.95;;;29.03;24.31
77893;BME280;67087;50.094;14.338;2023-07-20T02:48:08;97595.55;;;28.95;24.75
77893;BME280;67087;50.094;14.338;2023-07-20T02:50:33;97595.95;;;28.90;24.44
77893;BME280;67087;50.094;14.338;2023-07-20T02:52:58;97594.96;;;28.86;24.64
77893;BME280;67087;50.094;14.338;2023-07-20T02:55:23;97596.65;;;28.51;24.23
77893;BME280;67087;50.094;14.338;2023-07-20T02:57:48;97599.66;;;28.62;24.89
77893;BME280;67087;50.094;14.338;2023-07-20T03:00:14;97599.41;;;28.58;24.73
77893;BME280;67087;50.094;14.338;2023-07-20T03:02:38;97597.19;;;29.00;24.63
77893;BME280;67087;50.094;14.338;2023-07-20T03:05:04;97594.19;;;28.66;24.76
77893;BME280;67087;50.094;14.338;2023-07-20T03:07:28;97600.90;;;28.88;24.33
77893;BME280;67087;50.094;14.338;2023-07-20T03:09:53;97603.51;;;28.71;24.65
77893;BME280;67087;50.094;14.338;2023-07-20T03:12:19;97605.52;;;28.68;24.66
77893;BME280;67087;50.094;14.338;2023-07-20T03:14:43;97604.78;;;28.10;25.18
77893;BME280;67087;50.094;14.338;2023-07-20T03:17:08;97608.40;;;28.58;24.80
77893;BME280;67087;50.094;14.338;2023-07-20T03:19:33;97614.09;;;28.38;25.03
77893;BME280;67087;50.094;14.338;2023-07-20T03:21:58;97620.00;;;28.41;24.93
77893;BME280;67087;50.094;14.338;2023-07-20T03:24:24;97620.72;;;27.74;25.17
77893;BME280;67087;50.094;14.338;2023-07-20T03:26:49;97621.24;;;28.51;25.17
77893;BME280;67087;50.094;14.338;2023-07-20T03:29:14;97624.91;;;28.85;24.65
77893;BME280;67087;50.094;14.338;2023-07-20T03:31:39;97624.16;;;28.59;24.65
77893;BME280;67087;50.094;14.338;2023-07-20T03:34:04;97623.48;;;28.42;25.18
77893;BME280;67087;50.094;14.338;2023-07-20T03:36:29;97621.69;;;27.49;25.29
77893;BME280;67087;50.094;14.338;2023-07-20T03:38:54;97621.63;;;28.06;25.54
77893;BME280;67087;50.094;14.338;2023-07-20T03:41:20;97620.00;;;28.01;25.49
77893;BME280;67087;50.094;14.338;2023-07-20T03:43:45;97619.08;;;27.85;25.39
77893;BME280;67087;50.094;14.338;2023-07-20T03:46:10;97618.96;;;28.62;24.89
77893;BME280;67087;50.094;14.338;2023-07-20T03:48:35;97618.98;;;28.33;24.83
77893;BME280;67087;50.094;14.338;2023-07-20T03:51:00;97622.04;;;28.31;25.13
77893;BME280;67087;50.094;14.338;2023-07-20T03:53:25;97621.40;;;27.67;25.01
77893;BME280;67087;50.094;14.338;2023-07-20T03:55:51;97628.51;;;28.21;25.23
77893;BME280;67087;50.094;14.338;2023-07-20T03:58:15;97629.85;;;28.13;25.18
77893;BME280;67087;50.094;14.338;2023-07-20T04:00:43;97629.17;;;27.84;25.27
77893;BME280;67087;50.094;14.338;2023-07-20T04:03:05;97627.43;;;28.08;25.42
77893;BME280;67087;50.094;14.338;2023-07-20T04:05:30;97624.93;;;28.03;25.18
77893;BME280;67087;50.094;14.338;2023-07-20T04:07:56;97626.30;;;27.81;25.40
77893;BME280;67087;50.094;14.338;2023-07-20T04:10:21;97626.11;;;27.98;25.22
77893;BME280;67087;50.094;14.338;2023-07-20T04:12:45;97628.03;;;27.90;25.34
77893;BME280;67087;50.094;14.338;2023-07-20T04:15:11;97632.09;;;27.87;25.43
77893;BME280;67087;50.094;14.338;2023-07-20T04:17:35;97633.40;;;27.95;25.22
77893;BME280;67087;50.094;14.338;2023-07-20T04:20:01;97635.37;;;27.95;25.85
77893;BME280;67087;50.094;14.338;2023-07-20T04:22:26;97637.21;;;27.25;25.43
77893;BME280;67087;50.094;14.338;2023-07-20T04:24:51;97640.14;;;28.13;25.49
77893;BME280;67087;50.094;14.338;2023-07-20T04:27:16;97639.18;;;28.35;25.03
77893;BME280;67087;50.094;14.338;2023-07-20T04:29:41;97642.00;;;28.21;25.39
77893;BME280;67087;50.094;14.338;2023-07-20T04:32:07;97643.34;;;27.80;25.62
77893;BME280;67087;50.094;14.338;2023-07-20T04:34:31;97643.63;;;27.54;25.41
77893;BME280;67087;50.094;14.338;2023-07-20T04:36:56;97642.92;;;28.39;25.32
77893;BME280;67087;50.094;14.338;2023-07-20T04:39:22;97643.19;;;27.56;25.75
77893;BME280;67087;50.094;14.338;2023-07-20T04:41:46;97646.25;;;28.25;25.08
77893;BME280;67087;50.094;14.338;2023-07-20T04:44:13;97650.22;;;28.35;25.23
77893;BME280;67087;50.094;14.338;2023-07-20T04:46:36;97655.17;;;28.40;25.03
77893;BME280;67087;50.094;14.338;2023-07-20T04:49:01;97652.04;;;28.53;24.88
77893;BME280;67087;50.094;14.338;2023-07-20T04:51:26;97649.31;;;27.77;25.12
77893;BME280;67087;50.094;14.338;2023-07-20T04:53:51;97650.12;;;28.05;25.72
77893;BME280;67087;50.094;14.338;2023-07-20T04:56:17;97647.62;;;28.19;25.37
77893;BME280;67087;50.094;14.338;2023-07-20T04:58:42;97643.42;;;28.44;25.25
77893;BME280;67087;50.094;14.338;2023-07-20T05:01:08;97645.01;;;28.56;24.97
77893;BME280;67087;50.094;14.338;2023-07-20T05:03:32;97649.43;;;28.08;25.19
77893;BME280;67087;50.094;14.338;2023-07-20T05:05:58;97653.51;;;28.67;24.88
77893;BME280;67087;50.094;14.338;2023-07-20T05:08:23;97656.12;;;27.50;25.80
77893;BME280;67087;50.094;14.338;2023-07-20T05:10:48;97652.19;;;28.02;25.85
77893;BME280;67087;50.094;14.338;2023-07-20T05:13:13;97655.85;;;28.38;25.44
77893;BME280;67087;50.094;14.338;2023-07-20T05:15:38;97657.74;;;26.98;27.47
77893;BME280;67087;50.094;14.338;2023-07-20T05:18:04;97654.67;;;28.06;25.78
77893;BME280;67087;50.094;14.338;2023-07-20T05:20:29;97657.22;;;27.40;26.03
77893;BME280;67087;50.094;14.338;2023-07-20T05:22:55;97651.83;;;27.87;26.02
77893;BME280;67087;50.094;14.338;2023-07-20T05:25:21;97648.91;;;27.93;25.72
77893;BME280;67087;50.094;14.338;2023-07-20T05:27:45;97651.85;;;28.15;25.65
77893;BME280;67087;50.094;14.338;2023-07-20T05:30:11;97653.67;;;27.87;26.01
77893;BME280;67087;50.094;14.338;2023-07-20T05:32:35;97654.79;;;27.63;26.02
77893;BME280;67087;50.094;14.338;2023-07-20T05:35:01;97657.29;;;28.17;25.74
77893;BME280;67087;50.094;14.338;2023-07-20T05:37:26;97657.67;;;27.05;25.82
77893;BME280;67087;50.094;14.338;2023-07-20T05:39:51;97657.59;;;28.44;25.41
77893;BME280;67087;50.094;14.338;2023-07-20T05:42:16;97660.68;;;28.42;25.44
77893;BME280;67087;50.094;14.338;2023-07-20T05:44:41;97659.43;;;27.99;25.42
77893;BME280;67087;50.094;14.338;2023-07-20T05:47:06;97662.60;;;28.40;25.45
77893;BME280;67087;50.094;14.338;2023-07-20T05:49:31;97660.84;;;27.95;25.30
77893;BME280;67087;50.094;14.338;2023-07-20T05:51:56;97660.89;;;28.23;25.55
77893;BME280;67087;50.094;14.338;2023-07-20T05:54:23;97661.27;;;27.79;25.55
77893;BME280;67087;50.094;14.338;2023-07-20T05:56:46;97667.78;;;27.99;25.89
77893;BME280;67087;50.094;14.338;2023-07-20T05:59:11;97669.36;;;28.00;25.88
77893;BME280;67087;50.094;14.338;2023-07-20T06:01:36;97672.16;;;28.17;25.41
77893;BME280;67087;50.094;14.338;2023-07-20T06:04:02;97673.09;;;27.94;25.67
77893;BME280;67087;50.094;14.338;2023-07-20T06:06:27;97670.55;;;27.45;25.27
77893;BME280;67087;50.094;14.338;2023-07-20T06:08:52;97672.00;;;27.99;25.42
77893;BME280;67087;50.094;14.338;2023-07-20T06:11:18;97674.35;;;28.42;24.92
77893;BME280;67087;50.094;14.338;2023-07-20T06:13:43;97679.67;;;27.68;25.28
77893;BME280;67087;50.094;14.338;2023-07-20T06:16:08;97682.65;;;28.34;25.08
77893;BME280;67087;50.094;14.338;2023-07-20T06:18:33;97678.01;;;28.07;24.81
77893;BME280;67087;50.094;14.338;2023-07-20T06:20:58;97681.48;;;27.70;25.44
77893;BME280;67087;50.094;14.338;2023-07-20T06:23:23;97677.86;;;27.69;25.04
77893;BME280;67087;50.094;14.338;2023-07-20T06:25:48;97678.38;;;28.36;24.90
77893;BME280;67087;50.094;14.338;2023-07-20T06:28:13;97678.91;;;28.30;24.90
77893;BME280;67087;50.094;14.338;2023-07-20T06:30:38;97676.45;;;28.05;24.93
77893;BME280;67087;50.094;14.338;2023-07-20T06:33:03;97678.15;;;28.06;24.96
77893;BME280;67087;50.094;14.338;2023-07-20T06:35:29;97674.24;;;28.02;24.41
77893;BME280;67087;50.094;14.338;2023-07-20T06:37:54;97667.19;;;27.95;24.56
77893;BME280;67087;50.094;14.338;2023-07-20T06:40:20;97677.35;;;27.56;24.96
77893;BME280;67087;50.094;14.338;2023-07-20T06:42:44;97669.89;;;27.04;25.33
77893;BME280;67087;50.094;14.338;2023-07-20T06:45:10;97670.53;;;27.68;25.08
77893;BME280;67087;50.094;14.338;2023-07-20T06:47:34;97663.38;;;27.18;25.27
77893;BME280;67087;50.094;14.338;2023-07-20T06:50:00;97658.97;;;27.85;24.69
77893;BME280;67087;50.094;14.338;2023-07-20T06:52:25;97667.04;;;26.52;25.15
77893;BME280;67087;50.094;14.338;2023-07-20T06:54:50;97667.47;;;27.31;25.26
77893;BME280;67087;50.094;14.338;2023-07-20T06:57:15;97670.37;;;27.37;24.96
77893;BME280;67087;50.094;14.338;2023-07-20T06:59:40;97674.20;;;27.62;24.90
77893;BME280;67087;50.094;14.338;2023-07-20T07:02:05;97681.83;;;27.71;24.92
77893;BME280;67087;50.094;14.338;2023-07-20T07:04:31;97684.90;;;27.56;25.07
77893;BME280;67087;50.094;14.338;2023-07-20T07:06:55;97680.24;;;27.87;24.93
77893;BME280;67087;50.094;14.338;2023-07-20T07:09:21;97678.96;;;27.22;25.13
77893;BME280;67087;50.094;14.338;2023-07-20T07:11:45;97676.74;;;27.44;25.12
77893;BME280;67087;50.094;14.338;2023-07-20T07:14:12;97678.10;;;27.37;25.34
77893;BME280;67087;50.094;14.338;2023-07-20T07:16:36;97678.78;;;27.55;24.85
77893;BME280;67087;50.094;14.338;2023-07-20T07:19:01;97679.51;;;27.50;25.43
77893;BME280;67087;50.094;14.338;2023-07-20T07:21:26;97676.99;;;26.53;25.74
77893;BME280;67087;50.094;14.338;2023-07-20T07:23:51;97680.56;;;27.02;25.59
77893;BME280;67087;50.094;14.338;2023-07-20T07:26:16;97674.13;;;27.01;25.10
77893;BME280;67087;50.094;14.338;2023-07-20T07:28:41;97675.88;;;26.78;25.30
77893;BME280;67087;50.094;14.338;2023-07-20T07:31:06;97681.24;;;27.02;25.12
77893;BME280;67087;50.094;14.338;2023-07-20T07:33:32;97688.31;;;26.87;25.16
77893;BME280;67087;50.094;14.338;2023-07-20T07:35:57;97690.48;;;27.07;24.83
77893;BME280;67087;50.094;14.338;2023-07-20T07:38:22;97694.89;;;27.62;24.71
77893;BME280;67087;50.094;14.338;2023-07-20T07:40:47;97695.16;;;27.63;24.67
77893;BME280;67087;50.094;14.338;2023-07-20T07:43:12;97692.98;;;27.23;24.95
77893;BME280;67087;50.094;14.338;2023-07-20T07:45:37;97692.16;;;26.74;25.01
77893;BME280;67087;50.094;14.338;2023-07-20T07:48:02;97691.73;;;27.31;24.66
77893;BME280;67087;50.094;14.338;2023-07-20T07:50:27;97693.29;;;26.87;24.17
77893;BME280;67087;50.094;14.338;2023-07-20T07:52:52;97695.29;;;26.67;25.09
77893;BME280;67087;50.094;14.338;2023-07-20T07:55:18;97694.52;;;26.81;24.86
77893;BME280;67087;50.094;14.338;2023-07-20T07:57:43;97690.40;;;27.07;24.68
77893;BME280;67087;50.094;14.338;2023-07-20T08:00:09;97689.20;;;27.02;24.87
77893;BME280;67087;50.094;14.338;2023-07-20T08:02:33;97688.73;;;27.62;24.16
77893;BME280;67087;50.094;14.338;2023-07-20T08:04:58;97695.82;;;27.48;24.39
77893;BME280;67087;50.094;14.338;2023-07-20T08:07:23;97697.80;;;26.67;24.56
77893;BME280;67087;50.094;14.338;2023-07-20T08:09:48;97693.84;;;27.01;24.77
77893;BME280;67087;50.094;14.338;2023-07-20T08:12:13;97696.76;;;27.04;24.92
77893;BME280;67087;50.094;14.338;2023-07-20T08:14:38;97697.86;;;26.81;25.04
77893;BME280;67087;50.094;14.338;2023-07-20T08:17:04;97702.71;;;27.07;24.85
77893;BME280;67087;50.094;14.338;2023-07-20T08:19:28;97704.03;;;26.36;25.08
77893;BME280;67087;50.094;14.338;2023-07-20T08:21:53;97703.68;;;27.45;24.73
77893;BME280;67087;50.094;14.338;2023-07-20T08:24:19;97708.39;;;27.01;25.12
77893;BME280;67087;50.094;14.338;2023-07-20T08:26:44;97704.18;;;27.07;24.87
77893;BME280;67087;50.094;14.338;2023-07-20T08:29:09;97702.58;;;27.46;24.92
77893;BME280;67087;50.094;14.338;2023-07-20T08:31:34;97697.31;;;27.05;24.87
77893;BME280;67087;50.094;14.338;2023-07-20T08:34:00;97701.26;;;27.15;24.79
77893;BME280;67087;50.094;14.338;2023-07-20T08:36:25;97704.76;;;26.46;25.06
77893;BME280;67087;50.094;14.338;2023-07-20T08:38:50;97709.92;;;26.28;25.08
77893;BME280;67087;50.094;14.338;2023-07-20T08:41:15;97703.28;;;27.50;24.24
77893;BME280;67087;50.094;14.338;2023-07-20T08:43:42;97705.74;;;26.86;24.69
77893;BME280;67087;50.094;14.338;2023-07-20T08:46:05;97704.84;;;27.19;24.73
77893;BME280;67087;50.094;14.338;2023-07-20T08:48:31;97704.82;;;27.14;24.70
77893;BME280;67087;50.094;14.338;2023-07-20T08:50:56;97699.83;;;27.44;24.29
77893;BME280;67087;50.094;14.338;2023-07-20T08:53:21;97704.01;;;27.48;23.99
77893;BME280;67087;50.094;14.338;2023-07-20T08:55:45;97703.58;;;27.03;24.51
77893;BME280;67087;50.094;14.338;2023-07-20T08:58:12;97699.46;;;26.71;24.93
77893;BME280;67087;50.094;14.338;2023-07-20T09:00:36;97696.96;;;27.00;24.73
77893;BME280;67087;50.094;14.338;2023-07-20T09:03:02;97698.42;;;27.66;24.41
77893;BME280;67087;50.094;14.338;2023-07-20T09:05:26;97694.17;;;26.70;24.20
77893;BME280;67087;50.094;14.338;2023-07-20T09:07:51;97688.47;;;27.49;23.77
77893;BME280;67087;50.094;14.338;2023-07-20T09:10:16;97695.79;;;27.73;23.77
77893;BME280;67087;50.094;14.338;2023-07-20T09:12:43;97702.04;;;26.47;24.37
77893;BME280;67087;50.094;14.338;2023-07-20T09:15:09;97707.56;;;27.65;23.80
77893;BME280;67087;50.094;14.338;2023-07-20T09:17:32;97707.94;;;26.76;23.92
77893;BME280;67087;50.094;14.338;2023-07-20T09:19:57;97707.03;;;26.79;23.92
77893;BME280;67087;50.094;14.338;2023-07-20T09:22:23;97702.71;;;26.48;24.17
77893;BME280;67087;50.094;14.338;2023-07-20T09:24:47;97700.75;;;26.99;23.83
77893;BME280;67087;50.094;14.338;2023-07-20T09:27:12;97695.73;;;27.19;24.00
77893;BME280;67087;50.094;14.338;2023-07-20T09:29:47;97695.63;;;27.37;23.51
77893;BME280;67087;50.094;14.338;2023-07-20T09:32:03;97696.89;;;27.20;23.57
77893;BME280;67087;50.094;14.338;2023-07-20T09:34:29;97690.50;;;27.17;23.10
77893;BME280;67087;50.094;14.338;2023-07-20T09:36:52;97694.81;;;27.73;23.18
77893;BME280;67087;50.094;14.338;2023-07-20T09:39:18;97688.55;;;27.01;23.81
77893;BME280;67087;50.094;14.338;2023-07-20T09:41:43;97688.18;;;26.67;24.05
77893;BME280;67087;50.094;14.338;2023-07-20T09:44:08;97679.03;;;26.86;23.94
77893;BME280;67087;50.094;14.338;2023-07-20T09:46:41;97680.40;;;27.07;23.60
77893;BME280;67087;50.094;14.338;2023-07-20T09:48:58;97684.80;;;26.79;23.86
77893;BME280;67087;50.094;14.338;2023-07-20T09:51:24;97689.09;;;26.67;23.69
77893;BME280;67087;50.094;14.338;2023-07-20T09:53:48;97700.00;;;26.76;23.83
77893;BME280;67087;50.094;14.338;2023-07-20T09:56:14;97694.11;;;26.90;23.70
77893;BME280;67087;50.094;14.338;2023-07-20T09:58:39;97692.23;;;27.53;23.50
77893;BME280;67087;50.094;14.338;2023-07-20T10:01:06;97688.77;;;27.53;22.56
77893;BME280;67087;50.094;14.338;2023-07-20T10:03:29;97691.98;;;26.93;22.80
77893;BME280;67087;50.094;14.338;2023-07-20T10:05:59;97695.45;;;27.89;22.53
77893;BME280;67087;50.094;14.338;2023-07-20T10:08:22;97694.89;;;27.49;22.34
77893;BME280;67087;50.094;14.338;2023-07-20T10:10:44;97687.65;;;27.12;22.56
77893;BME280;67087;50.094;14.338;2023-07-20T10:13:14;97677.81;;;27.05;22.75
77893;BME280;67087;50.094;14.338;2023-07-20T10:15:37;97675.19;;;26.76;22.91
77893;BME280;67087;50.094;14.338;2023-07-20T10:18:03;97683.74;;;27.28;22.40
77893;BME280;67087;50.094;14.338;2023-07-20T10:20:25;97670.81;;;26.56;22.76
77893;BME280;67087;50.094;14.338;2023-07-20T10:22:54;97677.33;;;26.91;22.78
77893;BME280;67087;50.094;14.338;2023-07-20T10:25:15;97677.74;;;27.06;22.89
77893;BME280;67087;50.094;14.338;2023-07-20T10:27:40;97682.81;;;26.85;22.98
77893;BME280;67087;50.094;14.338;2023-07-20T10:30:06;97682.27;;;26.88;23.22
77893;BME280;67087;50.094;14.338;2023-07-20T10:32:30;97684.25;;;26.80;23.19
77893;BME280;67087;50.094;14.338;2023-07-20T10:34:56;97680.94;;;27.03;22.99
77893;BME280;67087;50.094;14.338;2023-07-20T10:39:45;97681.42;;;27.39;22.86
77893;BME280;67087;50.094;14.338;2023-07-20T10:42:10;97688.95;;;27.32;22.93
77893;BME280;67087;50.094;14.338;2023-07-20T10:44:37;97695.20;;;26.50;23.30
77893;BME280;67087;50.094;14.338;2023-07-20T10:47:01;97688.10;;;26.83;23.44
77893;BME280;67087;50.094;14.338;2023-07-20T10:49:26;97685.96;;;26.16;23.61
77893;BME280;67087;50.094;14.338;2023-07-20T10:51:56;97690.83;;;27.44;23.48
77893;BME280;67087;50.094;14.338;2023-07-20T10:54:34;97690.12;;;26.71;23.85
77893;BME280;67087;50.094;14.338;2023-07-20T10:56:41;97695.67;;;26.70;23.73
77893;BME280;67087;50.094;14.338;2023-07-20T11:01:36;97690.58;;;26.44;23.72
77893;BME280;67087;50.094;14.338;2023-07-20T11:03:58;97686.85;;;26.33;23.81
77893;BME280;67087;50.094;14.338;2023-07-20T11:06:31;97695.40;;;26.62;23.43
77893;BME280;67087;50.094;14.338;2023-07-20T11:08:47;97697.41;;;27.54;23.16
77893;BME280;67087;50.094;14.338;2023-07-20T11:11:22;97696.43;;;27.37;23.56
77893;BME280;67087;50.094;14.338;2023-07-20T11:16:03;97679.96;;;27.41;22.90
77893;BME280;67087;50.094;14.338;2023-07-20T11:18:27;97684.41;;;27.05;22.83
77893;BME280;67087;50.094;14.338;2023-07-20T11:20:53;97679.27;;;27.03;23.08
77893;BME280;67087;50.094;14.338;2023-07-20T11:23:17;97676.19;;;27.04;23.18
77893;BME280;67087;50.094;14.338;2023-07-20T11:25:42;97674.09;;;27.00;23.22
77893;BME280;67087;50.094;14.338;2023-07-20T11:28:08;97673.44;;;27.20;23.07
77893;BME280;67087;50.094;14.338;2023-07-20T11:30:33;97667.14;;;26.63;22.93
77893;BME280;67087;50.094;14.338;2023-07-20T11:32:58;97664.71;;;27.03;22.52
77893;BME280;67087;50.094;14.338;2023-07-20T11:35:23;97663.72;;;26.83;22.60
77893;BME280;67087;50.094;14.338;2023-07-20T11:37:48;97663.96;;;27.65;22.43
77893;BME280;67087;50.094;14.338;2023-07-20T11:40:13;97661.45;;;27.24;22.46
77893;BME280;67087;50.094;14.338;2023-07-20T11:42:38;97659.12;;;26.82;22.65
77893;BME280;67087;50.094;14.338;2023-07-20T11:45:04;97659.01;;;27.23;22.55
77893;BME280;67087;50.094;14.338;2023-07-20T11:47:29;97666.26;;;26.64;22.92
77893;BME280;67087;50.094;14.338;2023-07-20T11:49:53;97663.27;;;27.47;22.45
77893;BME280;67087;50.094;14.338;2023-07-20T11:52:19;97659.10;;;27.06;22.78
77893;BME280;67087;50.094;14.338;2023-07-20T11:54:45;97659.71;;;27.28;22.78
77893;BME280;67087;50.094;14.338;2023-07-20T11:57:16;97651.56;;;27.15;22.54
77893;BME280;67087;50.094;14.338;2023-07-20T11:59:34;97649.78;;;27.11;22.17
77893;BME280;67087;50.094;14.338;2023-07-20T12:02:01;97648.86;;;27.16;22.52
77893;BME280;67087;50.094;14.338;2023-07-20T12:04:25;97650.56;;;26.70;22.43
77893;BME280;67087;50.094;14.338;2023-07-20T12:06:49;97644.32;;;27.26;22.39
77893;BME280;67087;50.094;14.338;2023-07-20T12:09:16;97643.63;;;27.72;21.93
77893;BME280;67087;50.094;14.338;2023-07-20T12:11:39;97646.71;;;27.68;21.91
77893;BME280;67087;50.094;14.338;2023-07-20T12:14:07;97649.89;;;27.83;21.64
77893;BME280;67087;50.094;14.338;2023-07-20T12:16:30;97646.68;;;27.32;21.62
77893;BME280;67087;50.094;14.338;2023-07-20T12:19:00;97652.68;;;27.62;21.92
77893;BME280;67087;50.094;14.338;2023-07-20T12:21:20;97649.74;;;28.21;21.49
77893;BME280;67087;50.094;14.338;2023-07-20T12:23:45;97649.17;;;28.21;21.46
77893;BME280;67087;50.094;14.338;2023-07-20T12:26:10;97646.56;;;27.44;22.09
77893;BME280;67087;50.094;14.338;2023-07-20T12:28:38;97639.64;;;27.81;21.83
77893;BME280;67087;50.094;14.338;2023-07-20T12:31:00;97634.75;;;27.55;22.14
77893;BME280;67087;50.094;14.338;2023-07-20T12:33:26;97625.59;;;27.09;22.18
77893;BME280;67087;50.094;14.338;2023-07-20T12:35:50;97625.60;;;27.95;21.98
77893;BME280;67087;50.094;14.338;2023-07-20T12:38:16;97624.83;;;27.79;22.06
77893;BME280;67087;50.094;14.338;2023-07-20T12:40:40;97631.80;;;27.65;21.67
77893;BME280;67087;50.094;14.338;2023-07-20T12:43:06;97632.36;;;27.64;22.13
77893;BME280;67087;50.094;14.338;2023-07-20T12:45:31;97626.50;;;27.70;22.01
77893;BME280;67087;50.094;14.338;2023-07-20T12:47:56;97619.84;;;27.72;22.00
77893;BME280;67087;50.094;14.338;2023-07-20T12:50:21;97622.54;;;27.79;21.84